Time;durP1;ratioP1;P1;durP2;ratioP2;P2;SDS_P1;SDS_P2;PMS_P1;PMS_P2;Temp;Humidity;BMP_temperature;BMP_pressure;BME280_temperature;BME280_humidity;BME280_pressure;Samples;Min_cycle;Max_cycle;Signal;HPM_P1;HPM_P2
2022/04/22 00:00:12;;;;;;;11.15;5.72;;;10.70;99.90;;;;;;4848411;29;20038;-80
2022/04/22 00:02:39;;;;;;;17.67;7.03;;;10.70;99.90;;;;;;4834468;29;20118;-81
2022/04/22 00:05:13;;;;;;;14.13;6.03;;;10.80;99.90;;;;;;4848516;29;20045;-81
2022/04/22 00:07:39;;;;;;;14.77;6.30;;;10.60;99.90;;;;;;4844003;29;20443;-81
2022/04/22 00:10:06;;;;;;;12.20;6.50;;;10.50;99.90;;;;;;4860329;29;20139;-81
2022/04/22 00:12:32;;;;;;;11.55;6.13;;;10.50;99.90;;;;;;4842157;29;20142;-80
2022/04/22 00:14:57;;;;;;;9.75;5.63;;;10.50;99.90;;;;;;4857192;29;20049;-80
2022/04/22 00:17:23;;;;;;;16.08;6.65;;;10.40;99.90;;;;;;4848176;29;20762;-81
2022/04/22 00:19:48;;;;;;;14.73;5.80;;;10.50;99.90;;;;;;4839808;29;20129;-81
2022/04/22 00:22:14;;;;;;;11.93;5.93;;;10.50;99.90;;;;;;4822836;29;20145;-80
2022/04/22 00:24:40;;;;;;;16.25;6.90;;;10.40;99.90;;;;;;4839812;29;20069;-80
2022/04/22 00:27:05;;;;;;;10.73;6.20;;;10.40;99.90;;;;;;4821617;29;20465;-80
2022/04/22 00:29:31;;;;;;;10.10;6.07;;;10.40;99.90;;;;;;4821589;29;20487;-81
2022/04/22 00:31:57;;;;;;;13.98;6.55;;;10.30;99.90;;;;;;4804914;29;20569;-80
2022/04/22 00:34:22;;;;;;;15.10;6.60;;;10.60;99.90;;;;;;4820592;29;20090;-79
2022/04/22 00:36:48;;;;;;;16.58;7.18;;;10.20;99.90;;;;;;4809256;29;20449;-80
2022/04/22 00:39:14;;;;;;;15.88;7.07;;;10.20;99.90;;;;;;4827282;29;20054;-81
2022/04/22 00:41:39;;;;;;;13.95;6.75;;;10.20;99.90;;;;;;4837470;24;20058;-81
2022/04/22 00:44:05;;;;;;;17.70;6.93;;;10.20;99.90;;;;;;4842886;29;20053;-80
2022/04/22 00:46:31;;;;;;;17.05;6.95;;;10.10;99.90;;;;;;4862205;29;20042;-78
2022/04/22 00:48:57;;;;;;;12.48;6.90;;;10.10;99.90;;;;;;4858002;29;20072;-79
2022/04/22 00:51:22;;;;;;;14.90;6.63;;;10.10;99.90;;;;;;4846700;29;20056;-81
2022/04/22 00:53:50;;;;;;;18.73;7.22;;;10.10;99.90;;;;;;4876896;29;20068;-80
2022/04/22 00:56:16;;;;;;;12.95;6.88;;;10.00;99.90;;;;;;4876788;29;20044;-80
2022/04/22 00:58:45;;;;;;;18.17;6.80;;;10.00;99.90;;;;;;4877192;29;20566;-82
2022/04/22 01:01:11;;;;;;;15.82;7.28;;;10.00;99.90;;;;;;4872858;29;20569;-81
2022/04/22 01:03:37;;;;;;;16.77;7.15;;;10.00;99.90;;;;;;4861358;29;20136;-80
2022/04/22 01:11:39;;;;;;;16.17;6.60;;;10.40;99.90;;;;;;4861053;29;20115;-80
2022/04/22 01:14:06;;;;;;;14.23;7.50;;;9.90;99.90;;;;;;4860991;29;20057;-79
2022/04/22 01:16:33;;;;;;;19.00;7.35;;;9.90;99.90;;;;;;4860882;29;20052;-81
2022/04/22 01:18:58;;;;;;;15.48;7.55;;;9.90;99.90;;;;;;4843818;29;20597;-81
2022/04/22 01:21:24;;;;;;;10.85;6.80;;;10.00;99.90;;;;;;4861719;29;20124;-79
2022/04/22 01:23:50;;;;;;;20.10;7.78;;;9.80;99.90;;;;;;4860650;29;20061;-79
2022/04/22 01:26:15;;;;;;;16.23;8.02;;;10.20;99.90;;;;;;4860706;29;20112;-80
2022/04/22 01:28:43;;;;;;;18.02;7.68;;;9.80;99.90;;;;;;4860684;29;20072;-81
2022/04/22 01:31:13;;;;;;;14.93;7.18;;;9.90;99.90;;;;;;4861645;29;20081;-78
2022/04/22 01:33:38;;;;;;;17.25;7.72;;;9.80;99.90;;;;;;4860529;29;20049;-79
2022/04/22 01:36:04;;;;;;;12.98;7.25;;;9.80;99.90;;;;;;4860382;29;20052;-81
2022/04/22 01:38:30;;;;;;;17.13;7.85;;;9.70;99.90;;;;;;4843980;29;20056;-80
2022/04/22 01:40:55;;;;;;;12.95;7.18;;;9.90;99.90;;;;;;4860974;29;20049;-80
2022/04/22 01:43:22;;;;;;;14.95;7.10;;;9.70;99.90;;;;;;4866732;24;20058;-80
2022/04/22 01:45:47;;;;;;;12.50;6.85;;;9.60;99.90;;;;;;4841528;29;20058;-79
2022/04/22 01:48:13;;;;;;;13.98;6.88;;;10.00;99.90;;;;;;4841904;29;20102;-79
2022/04/22 01:50:38;;;;;;;17.38;7.35;;;9.50;99.90;;;;;;4825322;29;20065;-80
2022/04/22 01:53:06;;;;;;;16.23;7.00;;;9.90;99.90;;;;;;4841627;29;20063;-81
2022/04/22 01:55:35;;;;;;;16.52;7.20;;;9.50;99.90;;;;;;4827995;29;20094;-79
2022/04/22 01:58:01;;;;;;;14.77;6.80;;;9.60;99.90;;;;;;4868531;29;20041;-80
2022/04/22 02:00:27;;;;;;;12.20;6.55;;;9.50;99.90;;;;;;4876140;29;20053;-78
2022/04/22 02:02:53;;;;;;;14.20;6.25;;;9.40;99.90;;;;;;4876058;29;20770;-79
2022/04/22 02:05:18;;;;;;;13.07;6.82;;;9.30;99.90;;;;;;4878589;29;20053;-79
2022/04/22 02:07:45;;;;;;;16.27;7.00;;;9.30;99.90;;;;;;4861951;29;20053;-79
2022/04/22 02:10:11;;;;;;;15.23;7.10;;;9.40;99.90;;;;;;4873167;29;20052;-80
2022/04/22 02:12:43;;;;;;;15.13;6.95;;;9.50;99.90;;;;;;4878238;29;20064;-78
2022/04/22 02:15:09;;;;;;;17.10;7.28;;;9.10;99.90;;;;;;4876495;29;20513;-81
2022/04/22 02:17:35;;;;;;;13.93;6.70;;;9.60;99.90;;;;;;4872263;29;20045;-78
2022/04/22 02:20:02;;;;;;;13.85;6.32;;;9.00;99.90;;;;;;4885319;29;20049;-78
2022/04/22 02:22:28;;;;;;;11.60;6.38;;;9.00;99.90;;;;;;4867103;29;20053;-77
2022/04/22 02:24:56;;;;;;;19.60;7.35;;;8.90;99.90;;;;;;4874379;29;20061;-78
2022/04/22 02:30:06;;;;;;;16.85;6.60;;;8.70;99.90;;;;;;4860359;29;20085;-79
2022/04/22 02:32:32;;;;;;;12.77;6.78;;;8.70;99.90;;;;;;4875831;29;20573;-78
2022/04/22 02:34:57;;;;;;;14.90;6.13;;;8.70;99.90;;;;;;4877819;29;20090;-78
2022/04/22 02:37:23;;;;;;;15.43;6.20;;;8.70;99.90;;;;;;4843298;29;20413;-78
2022/04/22 02:39:49;;;;;;;12.20;6.03;;;8.70;99.90;;;;;;4847280;29;20440;-75
2022/04/22 02:47:43;;;;;;;12.00;6.37;;;8.60;99.90;;;;;;4877898;29;20156;-78
2022/04/22 02:50:09;;;;;;;12.02;5.90;;;8.80;99.90;;;;;;4877912;29;20153;-78
2022/04/22 02:52:36;;;;;;;9.98;5.57;;;8.50;99.90;;;;;;4877428;29;20059;-79
2022/04/22 02:55:01;;;;;;;12.18;5.60;;;8.50;99.90;;;;;;4864331;29;20540;-78
2022/04/22 02:57:27;;;;;;;17.15;5.97;;;8.40;99.90;;;;;;4859006;29;20088;-79
2022/04/22 02:59:53;;;;;;;14.63;6.03;;;8.50;99.90;;;;;;4842047;29;20057;-79
2022/04/22 03:02:19;;;;;;;10.48;5.80;;;8.40;99.90;;;;;;4868879;29;20103;-74
2022/04/22 03:04:44;;;;;;;12.15;6.25;;;8.40;99.90;;;;;;4860083;29;20080;-77
2022/04/22 03:07:10;;;;;;;12.70;6.40;;;8.40;99.90;;;;;;4859197;29;20053;-77
2022/04/22 03:09:37;;;;;;;16.33;6.13;;;8.40;99.90;;;;;;4845039;29;20417;-79
2022/04/22 03:12:03;;;;;;;11.88;6.75;;;8.30;99.90;;;;;;4876600;29;20060;-79
2022/04/22 03:14:29;;;;;;;11.93;5.95;;;8.30;99.90;;;;;;4858741;29;20046;-79
2022/04/22 03:16:55;;;;;;;11.60;5.65;;;8.30;99.90;;;;;;4858806;29;20056;-79
2022/04/22 03:19:20;;;;;;;16.20;5.63;;;8.30;99.90;;;;;;4872496;29;20050;-77
2022/04/22 03:21:46;;;;;;;9.30;5.97;;;8.30;99.90;;;;;;4857156;29;20378;-78
2022/04/22 03:24:12;;;;;;;11.20;6.15;;;8.20;99.90;;;;;;4872549;29;20498;-80
2022/04/22 03:26:38;;;;;;;13.80;5.30;;;8.20;99.90;;;;;;4859541;29;20120;-79
2022/04/22 03:29:03;;;;;;;11.93;5.53;;;8.20;99.90;;;;;;4858437;29;20446;-79
2022/04/22 03:31:29;;;;;;;13.07;5.88;;;8.10;99.90;;;;;;4858044;29;20421;-78
2022/04/22 03:33:54;;;;;;;11.05;6.10;;;8.10;99.90;;;;;;4842965;29;20072;-80
2022/04/22 03:36:20;;;;;;;12.82;5.50;;;8.10;99.90;;;;;;4875678;29;20056;-81
2022/04/22 03:38:46;;;;;;;13.23;6.22;;;8.10;99.90;;;;;;4859099;29;20144;-77
2022/04/22 03:41:11;;;;;;;14.13;5.47;;;8.50;99.90;;;;;;4830225;29;20056;-79
2022/04/22 03:43:40;;;;;;;9.95;5.80;;;8.00;99.90;;;;;;4875208;29;20057;-78
2022/04/22 03:46:06;;;;;;;11.02;5.65;;;8.00;99.90;;;;;;4876545;29;20056;-78
2022/04/22 03:48:32;;;;;;;10.73;6.13;;;8.00;99.90;;;;;;4843211;29;20064;-79
2022/04/22 03:50:57;;;;;;;13.57;6.05;;;7.90;99.90;;;;;;4841391;29;20088;-79
2022/04/22 03:53:23;;;;;;;12.82;5.97;;;8.10;99.90;;;;;;4858185;29;20387;-78
2022/04/22 03:55:49;;;;;;;11.32;5.63;;;7.90;99.90;;;;;;4841709;29;20469;-79
2022/04/22 03:58:16;;;;;;;10.18;6.03;;;7.80;99.90;;;;;;4859112;29;20064;-80
2022/04/22 04:00:44;;;;;;;11.20;6.00;;;7.90;99.90;;;;;;4860811;29;20082;-79
2022/04/22 04:03:12;;;;;;;14.02;5.78;;;7.90;99.90;;;;;;4853411;29;20052;-78
2022/04/22 04:05:40;;;;;;;9.77;5.13;;;7.80;99.90;;;;;;4876867;29;20697;-78
2022/04/22 04:08:09;;;;;;;9.27;5.20;;;7.80;99.90;;;;;;4870041;29;20429;-78
2022/04/22 04:16:04;;;;;;;10.57;4.90;;;7.80;99.90;;;;;;4857982;29;20057;-78
2022/04/22 04:18:34;;;;;;;10.52;5.53;;;7.80;99.90;;;;;;4842805;29;20049;-77
2022/04/22 04:23:45;;;;;;;12.40;5.13;;;7.70;99.90;;;;;;4859403;29;20061;-78
2022/04/22 04:26:12;;;;;;;10.52;4.68;;;7.70;99.90;;;;;;4876227;29;20067;-78
2022/04/22 04:28:39;;;;;;;8.18;5.35;;;7.70;99.90;;;;;;4875569;29;20507;-80
2022/04/22 04:31:06;;;;;;;12.98;5.00;;;7.60;99.90;;;;;;4858375;29;20076;-79
2022/04/22 04:33:32;;;;;;;9.35;4.65;;;8.30;99.90;;;;;;4878551;29;20056;-80
2022/04/22 04:35:59;;;;;;;8.70;4.55;;;7.60;99.90;;;;;;4879917;29;20539;-79
2022/04/22 04:38:25;;;;;;;12.57;4.95;;;7.80;99.90;;;;;;4862813;29;20052;-80
2022/04/22 04:40:51;;;;;;;9.38;4.88;;;8.20;99.90;;;;;;4849035;29;20053;-79
2022/04/22 04:43:18;;;;;;;10.57;4.85;;;7.70;99.90;;;;;;4844682;29;20045;-80
2022/04/22 04:45:45;;;;;;;8.30;4.88;;;7.70;99.90;;;;;;4861317;29;20069;-80
2022/04/22 04:48:11;;;;;;;8.60;4.22;;;8.20;99.90;;;;;;4861993;29;20450;-79
2022/04/22 04:50:39;;;;;;;7.63;4.50;;;7.70;99.90;;;;;;4862035;29;20088;-78
2022/04/22 04:53:04;;;;;;;6.57;4.10;;;7.70;99.90;;;;;;4878526;29;20057;-78
2022/04/22 04:55:30;;;;;;;12.27;4.80;;;7.70;99.90;;;;;;4879855;29;20048;-79
2022/04/22 04:57:56;;;;;;;9.10;4.35;;;7.90;99.90;;;;;;4856757;29;20081;-79
2022/04/22 05:00:21;;;;;;;9.95;4.65;;;7.60;99.90;;;;;;4861008;29;20478;-81
2022/04/22 05:02:47;;;;;;;11.98;4.97;;;7.70;99.90;;;;;;4858443;29;20051;-79
2022/04/22 05:05:13;;;;;;;14.25;4.80;;;7.60;99.90;;;;;;4879173;29;20128;-78
2022/04/22 05:07:57;;;;;;;8.57;4.40;;;7.90;99.90;;;;;;4855516;29;20057;-78
2022/04/22 05:10:24;;;;;;;9.70;4.75;;;7.60;99.90;;;;;;4855429;29;20109;-79
2022/04/22 05:12:51;;;;;;;8.18;4.53;;;7.60;99.90;;;;;;4875014;29;20088;-79
2022/04/22 05:15:18;;;;;;;8.75;4.95;;;7.70;99.90;;;;;;4844255;29;20057;-79
2022/04/22 05:17:45;;;;;;;7.47;4.68;;;7.70;99.90;;;;;;4861918;29;20046;-80
2022/04/22 05:20:12;;;;;;;12.68;5.32;;;7.70;99.90;;;;;;4878338;29;20413;-79
2022/04/22 05:22:39;;;;;;;10.00;4.45;;;7.70;99.90;;;;;;4862026;29;20505;-81
2022/04/22 05:25:07;;;;;;;8.02;4.68;;;7.70;99.90;;;;;;4870035;29;20137;-82
2022/04/22 05:27:33;;;;;;;8.07;4.10;;;7.80;99.90;;;;;;4860654;29;20116;-81
2022/04/22 05:32:47;;;;;;;9.45;4.70;;;7.80;99.90;;;;;;4843708;29;20501;-80
2022/04/22 05:35:15;;;;;;;9.48;4.63;;;7.90;99.90;;;;;;4844228;29;20068;-81
2022/04/22 05:37:57;;;;;;;9.77;4.57;;;7.90;99.90;;;;;;4828365;29;20054;-80
2022/04/22 05:40:28;;;;;;;10.30;4.32;;;7.90;99.90;;;;;;4868719;29;20048;-79
2022/04/22 05:42:55;;;;;;;8.68;4.40;;;7.90;99.90;;;;;;4878550;29;20041;-80
2022/04/22 05:45:21;;;;;;;10.80;4.45;;;8.00;99.90;;;;;;4878738;29;20089;-80
2022/04/22 05:47:47;;;;;;;8.65;4.35;;;8.00;99.90;;;;;;4878809;29;20060;-78
2022/04/22 05:50:15;;;;;;;10.38;4.07;;;8.00;99.90;;;;;;4877063;29;20080;-80
2022/04/22 05:52:42;;;;;;;9.05;4.38;;;8.10;99.90;;;;;;4878263;29;20113;-80
2022/04/22 05:55:13;;;;;;;7.82;4.75;;;8.10;99.90;;;;;;4861655;29;20109;-78
2022/04/22 05:57:39;;;;;;;11.50;4.38;;;8.20;99.90;;;;;;4878815;29;20052;-81
2022/04/22 06:00:10;;;;;;;7.97;3.88;;;8.20;99.90;;;;;;4877090;29;20053;-79
2022/04/22 06:02:36;;;;;;;8.38;3.67;;;8.30;99.90;;;;;;4878461;29;20536;-79
2022/04/22 06:05:02;;;;;;;10.80;4.05;;;8.30;99.90;;;;;;4861798;29;20061;-79
2022/04/22 06:07:28;;;;;;;11.20;4.20;;;8.40;99.90;;;;;;4872867;29;20414;-80
2022/04/22 06:12:38;;;;;;;6.55;3.65;;;8.50;99.90;;;;;;4876952;29;20093;-82
2022/04/22 06:15:04;;;;;;;9.10;3.85;;;8.50;99.90;;;;;;4861505;29;20084;-81
2022/04/22 06:17:31;;;;;;;10.80;3.83;;;8.60;99.90;;;;;;4860945;29;20096;-81
2022/04/22 06:19:58;;;;;;;7.30;3.50;;;8.60;99.90;;;;;;4878382;29;20056;-82
2022/04/22 06:22:26;;;;;;;5.95;3.50;;;8.70;99.90;;;;;;4859537;29;20125;-81
2022/04/22 06:24:52;;;;;;;4.93;2.97;;;8.80;99.90;;;;;;4849878;29;20474;-79
2022/04/22 06:27:34;;;;;;;6.85;3.30;;;8.80;99.90;;;;;;4859805;29;20509;-80
2022/04/22 06:30:24;;;;;;;6.10;2.92;;;8.90;99.90;;;;;;4859692;29;20082;-80
2022/04/22 06:32:53;;;;;;;4.28;2.83;;;8.90;99.90;;;;;;4854718;29;20060;-81
2022/04/22 06:35:21;;;;;;;7.43;3.20;;;9.00;99.90;;;;;;4867061;29;20053;-80
2022/04/22 06:37:52;;;;;;;8.63;3.40;;;9.10;99.90;;;;;;4859351;29;20398;-80
2022/04/22 06:45:49;;;;;;;10.75;3.05;;;9.30;99.90;;;;;;4860414;29;20466;-79
2022/04/22 06:48:18;;;;;;;6.10;2.85;;;9.40;99.90;;;;;;4859252;29;20136;-80
2022/04/22 06:50:48;;;;;;;6.65;3.13;;;9.50;99.90;;;;;;4859099;29;20410;-81
2022/04/22 06:53:16;;;;;;;10.93;2.88;;;9.50;99.90;;;;;;4842105;29;20062;-79
2022/04/22 06:55:42;;;;;;;8.10;2.60;;;9.60;99.90;;;;;;4859443;29;20049;-80
2022/04/22 06:58:11;;;;;;;8.02;2.80;;;9.70;99.90;;;;;;4859473;29;20106;-81
2022/04/22 07:00:37;;;;;;;5.80;2.45;;;9.70;99.90;;;;;;4855952;29;20395;-80
2022/04/22 07:03:04;;;;;;;6.00;2.63;;;9.80;99.90;;;;;;4840553;29;20049;-79
2022/04/22 07:05:33;;;;;;;6.07;2.40;;;9.90;99.90;;;;;;4823861;29;20057;-80
2022/04/22 07:07:59;;;;;;;6.93;2.53;;;9.90;99.90;;;;;;4859506;29;20061;-81
2022/04/22 07:10:26;;;;;;;8.98;2.45;;;10.00;99.90;;;;;;4842533;29;20105;-82
2022/04/22 07:12:56;;;;;;;3.92;2.22;;;10.20;99.90;;;;;;4858832;29;20053;-81
2022/04/22 07:15:21;;;;;;;5.30;2.70;;;10.40;99.90;;;;;;4842534;29;20133;-80
2022/04/22 07:17:47;;;;;;;6.53;2.80;;;10.30;99.90;;;;;;4859607;29;20511;-80
2022/04/22 07:20:13;;;;;;;7.05;3.13;;;10.40;99.90;;;;;;4842624;29;20092;-80
2022/04/22 07:22:40;;;;;;;8.13;2.60;;;10.50;99.90;;;;;;4842127;29;20167;-80
2022/04/22 07:25:08;;;;;;;8.10;2.67;;;10.60;99.90;;;;;;4858344;29;20106;-78
2022/04/22 07:27:36;;;;;;;5.90;2.67;;;10.70;99.90;;;;;;4866306;29;20041;-82
2022/04/22 07:30:05;;;;;;;5.65;2.33;;;10.80;99.90;;;;;;4877175;29;20386;-80
2022/04/22 07:32:31;;;;;;;9.70;2.85;;;10.80;99.90;;;;;;4859186;29;20062;-80
2022/04/22 07:34:57;;;;;;;7.47;2.25;;;10.90;99.90;;;;;;4872566;29;20048;-80
2022/04/22 07:37:25;;;;;;;6.00;2.60;;;11.00;99.90;;;;;;4852226;29;20060;-78
2022/04/22 07:39:51;;;;;;;6.25;2.42;;;11.10;99.90;;;;;;4877351;29;20167;-79
2022/04/22 07:42:19;;;;;;;3.90;2.25;;;11.20;99.90;;;;;;4861552;29;20049;-81
2022/04/22 07:47:35;;;;;;;5.57;2.67;;;11.40;99.90;;;;;;4859991;29;20048;-80
2022/04/22 07:50:05;;;;;;;8.35;2.05;;;11.60;99.90;;;;;;4860088;29;20097;-79
2022/04/22 07:52:36;;;;;;;7.35;2.28;;;11.70;99.90;;;;;;4860309;29;20107;-82
2022/04/22 07:55:03;;;;;;;6.82;2.40;;;11.90;99.90;;;;;;4849071;29;20156;-79
2022/04/22 07:57:29;;;;;;;6.05;2.70;;;12.00;99.90;;;;;;4858940;29;20068;-81
2022/04/22 07:59:55;;;;;;;9.75;2.85;;;12.10;99.90;;;;;;4860507;29;20041;-79
2022/04/22 08:02:21;;;;;;;9.43;2.63;;;12.30;99.90;;;;;;4825555;29;20144;-79
2022/04/22 08:04:47;;;;;;;8.10;2.25;;;12.70;99.90;;;;;;4857785;29;20109;-81
2022/04/22 08:07:13;;;;;;;4.53;2.20;;;12.80;99.90;;;;;;4858610;29;20057;-80
2022/04/22 08:09:39;;;;;;;5.10;2.30;;;12.80;99.90;;;;;;4861394;29;20132;-78
2022/04/22 08:12:06;;;;;;;4.57;2.13;;;12.90;99.90;;;;;;4845390;29;20061;-80
2022/04/22 08:14:33;;;;;;;5.75;1.73;;;13.20;99.90;;;;;;4856068;29;20041;-80
2022/04/22 08:16:59;;;;;;;8.30;2.10;;;13.30;99.90;;;;;;4868277;29;20052;-80
2022/04/22 08:19:25;;;;;;;4.88;2.00;;;13.80;99.90;;;;;;4844181;29;20117;-80
2022/04/22 08:21:52;;;;;;;7.63;2.17;;;13.60;99.90;;;;;;4863496;29;20049;-80
2022/04/22 08:24:18;;;;;;;7.53;1.67;;;13.80;99.90;;;;;;4863509;29;20152;-80
2022/04/22 08:26:44;;;;;;;4.53;1.77;;;13.80;99.90;;;;;;4848198;29;20136;-79
2022/04/22 08:29:09;;;;;;;4.75;2.08;;;14.20;99.90;;;;;;4880024;29;20520;-78
2022/04/22 08:31:35;;;;;;;9.23;2.33;;;14.30;99.90;;;;;;4863177;29;20104;-82
2022/04/22 08:34:00;;;;;;;5.18;1.60;;;14.60;99.90;;;;;;4882500;29;20052;-79
2022/04/22 08:36:30;;;;;;;5.60;2.42;;;14.50;99.90;;;;;;4865236;29;20052;-81
2022/04/22 08:38:57;;;;;;;5.25;1.92;;;14.60;99.90;;;;;;4866196;29;20053;-78
2022/04/22 08:41:23;;;;;;;8.73;2.35;;;14.80;99.90;;;;;;4864649;29;20512;-78
2022/04/22 08:43:53;;;;;;;5.72;2.30;;;14.90;99.90;;;;;;4879806;29;20069;-78
2022/04/22 08:51:49;;;;;;;6.03;2.17;;;15.30;99.90;;;;;;4863128;29;20041;-80
2022/04/22 08:54:16;;;;;;;6.43;2.25;;;15.40;99.90;;;;;;4879804;29;20065;-78
2022/04/22 08:56:44;;;;;;;5.57;2.20;;;15.60;99.90;;;;;;4862634;29;20041;-80
2022/04/22 08:59:09;;;;;;;6.45;2.22;;;15.40;99.90;;;;;;4879733;29;20465;-79
2022/04/22 09:01:37;;;;;;;6.25;1.98;;;15.60;99.90;;;;;;4879252;29;20135;-80
2022/04/22 09:04:04;;;;;;;7.57;2.65;;;15.60;99.90;;;;;;4862739;29;20040;-79
2022/04/22 09:06:31;;;;;;;6.53;2.15;;;15.70;99.90;;;;;;4879578;29;20049;-78
2022/04/22 09:08:58;;;;;;;5.22;2.08;;;15.80;99.90;;;;;;4879700;29;20408;-79
2022/04/22 09:11:24;;;;;;;8.70;2.33;;;16.00;99.90;;;;;;4877433;29;20876;-78
2022/04/22 09:13:50;;;;;;;7.55;1.95;;;16.20;99.90;;;;;;4879575;29;20507;-80
2022/04/22 09:16:22;;;;;;;8.90;2.03;;;16.50;99.90;;;;;;4862515;29;20060;-80
2022/04/22 09:18:57;;;;;;;7.68;2.15;;;16.50;99.90;;;;;;4878525;29;20059;-79
2022/04/22 09:21:24;;;;;;;4.65;1.70;;;16.40;99.90;;;;;;4879570;29;20063;-81
2022/04/22 09:23:50;;;;;;;5.20;2.00;;;16.50;99.90;;;;;;4879464;29;20119;-80
2022/04/22 09:26:30;;;;;;;4.72;1.83;;;16.60;99.90;;;;;;4879372;29;20048;-80
2022/04/22 09:28:59;;;;;;;6.13;2.28;;;16.50;99.90;;;;;;4862517;29;20084;-80
2022/04/22 09:31:25;;;;;;;7.38;1.60;;;16.70;99.90;;;;;;4862255;29;20068;-79
2022/04/22 09:33:51;;;;;;;5.78;1.90;;;16.60;99.90;;;;;;4878859;29;20520;-78
2022/04/22 09:45:09;;;;;;;5.45;1.90;;;17.30;99.10;;;;;;4862062;29;20060;-79
2022/04/22 09:47:36;;;;;;;3.55;1.80;;;17.30;99.90;;;;;;4862102;29;20056;-79
2022/04/22 09:50:05;;;;;;;6.20;2.13;;;17.30;99.60;;;;;;4861839;29;20052;-79
2022/04/22 09:52:34;;;;;;;7.15;1.95;;;17.30;99.20;;;;;;4859442;29;20060;-81
2022/04/22 09:55:06;;;;;;;5.13;2.38;;;17.40;99.10;;;;;;4857964;29;20390;-80
2022/04/22 09:57:59;;;;;;;6.43;2.20;;;17.30;99.30;;;;;;4828080;29;20076;-79
2022/04/22 10:00:26;;;;;;;4.55;2.13;;;17.50;98.90;;;;;;4766732;30;20063;-80
2022/04/22 10:02:54;;;;;;;6.90;2.50;;;17.60;98.60;;;;;;4767671;30;20066;-82
2022/04/22 10:05:21;;;;;;;5.60;2.00;;;17.80;99.00;;;;;;4769527;30;20059;-82
2022/04/22 10:07:56;;;;;;;6.72;2.20;;;17.80;98.60;;;;;;4784433;30;20055;-76
2022/04/22 10:10:32;;;;;;;5.45;2.00;;;18.00;98.80;;;;;;4769328;30;20055;-78
2022/04/22 10:13:01;;;;;;;7.53;2.35;;;18.00;98.50;;;;;;4784391;30;20059;-81
2022/04/22 10:15:29;;;;;;;7.43;2.20;;;18.10;97.70;;;;;;4784455;30;20051;-80
2022/04/22 10:17:56;;;;;;;4.72;2.08;;;18.20;98.30;;;;;;4767819;30;20067;-80
2022/04/22 10:20:26;;;;;;;3.17;1.92;;;18.30;97.40;;;;;;4783926;30;20408;-79
2022/04/22 10:22:52;;;;;;;4.95;2.22;;;18.50;98.10;;;;;;4784375;30;20550;-77
2022/04/22 10:25:18;;;;;;;6.25;2.20;;;18.40;97.30;;;;;;4778989;30;20146;-79
2022/04/22 10:27:45;;;;;;;5.28;2.42;;;18.30;97.40;;;;;;4784383;30;20785;-82
2022/04/22 10:30:13;;;;;;;9.32;2.38;;;18.40;97.80;;;;;;4776053;29;20067;-78
2022/04/22 10:32:41;;;;;;;8.95;2.40;;;18.50;97.70;;;;;;4758851;30;20055;-77
2022/04/22 10:35:07;;;;;;;13.00;2.60;;;18.50;97.10;;;;;;4768817;30;20078;-80
2022/04/22 10:37:34;;;;;;;7.57;2.30;;;18.50;96.80;;;;;;4822275;29;20756;-82
2022/04/22 10:40:02;;;;;;;7.18;2.17;;;18.50;96.70;;;;;;4877867;29;20129;-79
2022/04/22 10:42:34;;;;;;;7.70;2.60;;;18.60;96.80;;;;;;4861131;29;20052;-79
2022/04/22 10:47:50;;;;;;;8.80;2.50;;;18.70;96.70;;;;;;4869623;29;20057;-82
2022/04/22 10:50:39;;;;;;;6.93;3.00;;;18.90;96.80;;;;;;4860587;29;20053;-80
2022/04/22 10:53:07;;;;;;;7.32;2.35;;;18.80;95.90;;;;;;4860371;29;20053;-81
2022/04/22 10:55:40;;;;;;;6.75;2.25;;;18.80;96.00;;;;;;4859256;29;20060;-80
2022/04/22 10:58:12;;;;;;;9.98;2.50;;;19.00;96.40;;;;;;4877667;29;20092;-81
2022/04/22 11:00:43;;;;;;;4.70;2.30;;;19.10;96.10;;;;;;4867620;29;20519;-81
2022/04/22 11:03:13;;;;;;;9.30;3.15;;;19.20;96.30;;;;;;4875511;29;20075;-80
2022/04/22 11:05:50;;;;;;;6.97;2.67;;;19.30;96.00;;;;;;4860770;29;20053;-78
2022/04/22 11:08:32;;;;;;;8.80;2.20;;;19.40;95.90;;;;;;4877250;29;20056;-79
2022/04/22 11:11:05;;;;;;;7.10;2.75;;;19.50;95.40;;;;;;4877454;29;20113;-79
2022/04/22 11:13:38;;;;;;;4.65;2.40;;;19.50;95.00;;;;;;4850855;29;20057;-79
2022/04/22 11:16:31;;;;;;;7.60;2.45;;;19.50;94.40;;;;;;4858792;29;20410;-78
2022/04/22 11:19:18;;;;;;;7.43;2.38;;;19.50;93.90;;;;;;4841937;29;20050;-82
2022/04/22 11:21:46;;;;;;;8.43;2.38;;;19.50;94.60;;;;;;4858798;29;20084;-77
2022/04/22 11:24:27;;;;;;;10.60;3.10;;;19.70;94.40;;;;;;4827232;29;20061;-80
2022/04/22 11:27:03;;;;;;;13.07;2.88;;;19.60;94.50;;;;;;4858914;29;20093;-79
2022/04/22 11:29:29;;;;;;;4.57;2.75;;;19.70;93.90;;;;;;4842270;29;20081;-81
2022/04/22 11:32:11;;;;;;;5.57;2.45;;;19.90;94.10;;;;;;4858973;29;20049;-81
2022/04/22 11:34:37;;;;;;;6.05;2.38;;;19.60;93.70;;;;;;4859537;29;20557;-79
2022/04/22 11:37:15;;;;;;;4.88;2.85;;;19.70;94.20;;;;;;4858735;29;20112;-82
2022/04/22 11:39:41;;;;;;;5.43;2.92;;;19.90;94.10;;;;;;4858232;29;20053;-78
2022/04/22 11:42:09;;;;;;;5.63;2.50;;;19.90;93.60;;;;;;4841791;29;20379;-81
2022/04/22 11:44:34;;;;;;;4.85;2.70;;;20.00;93.40;;;;;;4858381;29;20057;-80
2022/04/22 11:47:01;;;;;;;4.30;2.45;;;20.00;93.20;;;;;;4841581;29;20057;-79
2022/04/22 11:49:31;;;;;;;5.60;2.88;;;20.00;92.90;;;;;;4841688;29;20041;-79
2022/04/22 11:51:57;;;;;;;10.73;3.00;;;20.10;92.60;;;;;;4858703;29;20062;-81
2022/04/22 11:54:25;;;;;;;5.82;2.78;;;20.20;92.80;;;;;;4858636;29;20057;-80
2022/04/22 11:56:51;;;;;;;4.97;3.13;;;20.20;92.80;;;;;;4856805;29;20089;-80
2022/04/22 11:59:22;;;;;;;5.10;2.85;;;20.10;92.00;;;;;;4841743;29;20061;-80
2022/04/22 12:10:06;;;;;;;5.78;3.08;;;20.10;91.90;;;;;;4858128;29;20061;-80
2022/04/22 12:12:32;;;;;;;10.90;3.40;;;20.20;92.40;;;;;;4841121;29;20182;-78
2022/04/22 12:15:00;;;;;;;6.75;2.90;;;20.20;92.30;;;;;;4826424;29;20057;-81
2022/04/22 12:17:25;;;;;;;11.55;2.53;;;20.40;92.10;;;;;;4841834;29;20088;-80
2022/04/22 12:19:51;;;;;;;4.30;2.17;;;20.50;92.00;;;;;;4858444;29;20421;-78
2022/04/22 12:22:17;;;;;;;8.43;2.78;;;20.50;91.10;;;;;;4858474;29;20058;-79
2022/04/22 12:25:05;;;;;;;10.35;3.47;;;20.90;91.80;;;;;;4858287;29;20052;-79
2022/04/22 12:27:31;;;;;;;12.27;3.05;;;20.80;91.60;;;;;;4843681;29;20057;-79
2022/04/22 12:30:05;;;;;;;7.93;3.00;;;20.80;90.80;;;;;;4859350;29;20167;-81
2022/04/22 12:32:31;;;;;;;5.50;2.28;;;20.70;90.50;;;;;;4875056;29;20524;-80
2022/04/22 12:35:17;;;;;;;8.65;2.78;;;20.60;90.00;;;;;;4876484;29;20053;-79
2022/04/22 12:37:53;;;;;;;8.23;3.00;;;20.60;89.20;;;;;;4859850;29;20471;-77
2022/04/22 12:40:26;;;;;;;4.18;2.60;;;20.70;90.50;;;;;;4847959;29;20062;-77
2022/04/22 12:42:52;;;;;;;13.38;3.88;;;21.00;91.10;;;;;;4839016;29;20050;-81
2022/04/22 12:53:41;;;;;;;7.28;2.85;;;20.80;90.20;;;;;;4860527;29;20066;-80
2022/04/22 12:56:09;;;;;;;9.07;4.32;;;20.70;90.30;;;;;;4863095;29;20465;-79
2022/04/22 12:58:54;;;;;;;7.32;3.40;;;20.80;90.30;;;;;;4862570;29;20053;-76
2022/04/22 13:01:36;;;;;;;7.70;4.07;;;21.00;90.20;;;;;;4847711;29;20041;-77
2022/04/22 13:04:03;;;;;;;9.38;3.35;;;20.90;89.60;;;;;;4879609;29;20049;-78
2022/04/22 13:06:36;;;;;;;3.78;2.60;;;20.90;90.40;;;;;;4862681;29;20108;-77
2022/04/22 13:09:02;;;;;;;14.07;3.80;;;21.10;90.70;;;;;;4879515;29;20097;-79
2022/04/22 13:11:28;;;;;;;6.22;3.30;;;21.10;89.90;;;;;;4879273;29;20088;-78
2022/04/22 13:13:53;;;;;;;7.60;3.13;;;21.30;90.60;;;;;;4861953;29;20057;-79
2022/04/22 13:16:19;;;;;;;14.70;3.90;;;21.40;90.40;;;;;;4862789;29;20067;-77
2022/04/22 13:18:44;;;;;;;10.95;3.42;;;21.50;90.20;;;;;;4862838;29;20045;-80
2022/04/22 13:21:10;;;;;;;7.15;3.58;;;21.40;88.30;;;;;;4879268;29;20366;-80
2022/04/22 13:23:36;;;;;;;7.10;3.85;;;21.40;89.20;;;;;;4879192;29;20177;-80
2022/04/22 13:26:03;;;;;;;8.43;3.22;;;21.40;90.00;;;;;;4869575;29;20481;-80
2022/04/22 13:28:29;;;;;;;8.90;3.70;;;21.50;90.10;;;;;;4867779;29;20456;-81
2022/04/22 13:30:54;;;;;;;8.85;3.47;;;21.60;89.10;;;;;;4861825;29;20198;-80
2022/04/22 13:33:20;;;;;;;5.63;3.65;;;21.60;89.00;;;;;;4879248;29;20077;-81
2022/04/22 13:35:45;;;;;;;8.13;3.83;;;21.40;88.20;;;;;;4865291;29;20045;-79
2022/04/22 13:38:11;;;;;;;7.82;3.30;;;21.20;88.40;;;;;;4848175;29;20074;-79
2022/04/22 13:40:37;;;;;;;7.05;3.92;;;21.00;89.20;;;;;;4865097;29;20062;-78
2022/04/22 13:43:02;;;;;;;8.20;3.70;;;20.90;89.90;;;;;;4871122;29;20065;-79
2022/04/22 13:53:40;;;;;;;8.85;3.72;;;20.20;90.20;;;;;;4852475;29;20064;-80
2022/04/22 13:56:06;;;;;;;8.43;4.45;;;20.10;90.60;;;;;;4847206;29;20096;-76
2022/04/22 13:58:33;;;;;;;8.80;4.68;;;19.90;90.80;;;;;;4862037;29;20061;-79
2022/04/22 14:01:03;;;;;;;7.72;3.83;;;20.20;91.10;;;;;;4878401;29;20053;-77
2022/04/22 14:03:29;;;;;;;12.98;4.18;;;20.20;90.90;;;;;;4861749;29;20088;-77
2022/04/22 14:05:55;;;;;;;9.95;3.67;;;19.90;90.50;;;;;;4878490;29;20053;-78
2022/04/22 14:08:21;;;;;;;8.10;4.47;;;20.20;91.00;;;;;;4878701;29;20041;-78